Time;durP1;ratioP1;P1;durP2;ratioP2;P2;SDS_P1;SDS_P2;PMS_P1;PMS_P2;Temp;Humidity;BMP_temperature;BMP_pressure;BME280_temperature;BME280_humidity;BME280_pressure;Samples;Min_cycle;Max_cycle;Signal;HPM_P1;HPM_P2
2024/04/09 00:02:04;;;;;;;8.73;7.18;;;;;;;;;;5456819;27;20017;-81
2024/04/09 00:04:36;;;;;;;11.98;7.10;;;;;;;;;;5470946;26;19998;-81
2024/04/09 00:07:11;;;;;;;14.13;6.95;;;;;;;;;;5469280;26;20005;-81
2024/04/09 00:09:43;;;;;;;9.57;6.15;;;;;;;;;;5483732;26;20003;-81
2024/04/09 00:12:21;;;;;;;10.43;6.78;;;;;;;;;;5469043;26;20009;-81
2024/04/09 00:14:57;;;;;;;11.70;7.15;;;;;;;;;;5467170;26;20038;-82
2024/04/09 00:17:34;;;;;;;9.15;6.57;;;;;;;;;;5459411;27;20002;-81
2024/04/09 00:20:11;;;;;;;11.35;6.63;;;;;;;;;;5438896;27;20013;-82
2024/04/09 00:22:46;;;;;;;9.93;6.38;;;;;;;;;;5463216;27;19995;-81
2024/04/09 00:25:18;;;;;;;9.52;6.00;;;;;;;;;;5468454;27;20006;-81
2024/04/09 00:27:59;;;;;;;9.85;6.03;;;;;;;;;;5464122;27;20058;-81
2024/04/09 00:30:31;;;;;;;11.65;6.90;;;;;;;;;;5464617;27;20003;-81
2024/04/09 00:33:07;;;;;;;12.02;6.32;;;;;;;;;;5467174;27;19998;-81
2024/04/09 00:35:40;;;;;;;8.55;5.80;;;;;;;;;;5466381;27;20013;-81
2024/04/09 00:38:23;;;;;;;11.18;7.53;;;;;;;;;;5469468;27;20013;-83
2024/04/09 00:40:55;;;;;;;15.02;6.20;;;;;;;;;;5466462;27;20002;-82
2024/04/09 00:43:32;;;;;;;8.02;5.50;;;;;;;;;;5465647;27;19998;-82
2024/04/09 00:46:10;;;;;;;9.20;5.70;;;;;;;;;;5495854;26;20014;-82
2024/04/09 00:48:45;;;;;;;10.30;7.05;;;;;;;;;;5465102;27;19999;-81
2024/04/09 00:51:19;;;;;;;18.45;7.25;;;;;;;;;;5461533;27;20014;-81
2024/04/09 00:53:55;;;;;;;10.55;5.95;;;;;;;;;;5473656;27;20022;-81
2024/04/09 00:56:27;;;;;;;10.48;6.25;;;;;;;;;;5468489;27;20110;-81
2024/04/09 00:59:05;;;;;;;14.80;6.90;;;;;;;;;;5467937;27;20054;-81
2024/04/09 01:01:40;;;;;;;13.98;6.90;;;;;;;;;;5468271;27;19999;-81
2024/04/09 01:04:16;;;;;;;11.10;6.53;;;;;;;;;;5462723;27;20078;-81
2024/04/09 01:06:48;;;;;;;10.63;6.45;;;;;;;;;;5469560;27;20399;-82
2024/04/09 01:09:22;;;;;;;14.15;6.63;;;;;;;;;;5468371;27;20010;-81
2024/04/09 01:11:54;;;;;;;;;;;;;;;;;;5469380;27;19998;-81
2024/04/09 01:14:32;;;;;;;10.30;5.68;;;;;;;;;;5461823;27;19927;-81
2024/04/09 01:17:08;;;;;;;11.32;6.13;;;;;;;;;;5466914;27;20089;-81
2024/04/09 01:19:44;;;;;;;11.65;6.82;;;;;;;;;;5452558;27;20018;-81
2024/04/09 01:22:16;;;;;;;12.15;6.20;;;;;;;;;;5457106;27;19991;-81
2024/04/09 01:24:53;;;;;;;9.48;4.75;;;;;;;;;;5462881;27;20502;-80
2024/04/09 01:27:26;;;;;;;11.57;5.45;;;;;;;;;;5457684;27;20021;-83
2024/04/09 01:30:05;;;;;;;16.40;6.85;;;;;;;;;;5475224;26;19997;-80
2024/04/09 01:32:37;;;;;;;15.48;7.28;;;;;;;;;;5461117;26;20006;-80
2024/04/09 01:35:14;;;;;;;12.38;5.47;;;;;;;;;;5460836;27;20932;-80
2024/04/09 01:37:49;;;;;;;17.05;6.50;;;;;;;;;;5490832;26;20046;-80
2024/04/09 01:40:26;;;;;;;12.85;5.68;;;;;;;;;;5480937;26;20006;-81
2024/04/09 01:43:01;;;;;;;13.30;5.43;;;;;;;;;;5452529;27;20017;-80
2024/04/09 01:45:36;;;;;;;17.42;5.05;;;;;;;;;;5460793;27;20705;-80
2024/04/09 01:48:13;;;;;;;12.07;4.75;;;;;;;;;;5463043;27;20024;-80
2024/04/09 01:50:48;;;;;;;12.85;5.07;;;;;;;;;;5458817;27;20002;-81
2024/04/09 01:53:25;;;;;;;15.93;5.22;;;;;;;;;;5487660;26;20006;-81
2024/04/09 01:56:08;;;;;;;15.40;5.03;;;;;;;;;;5466514;27;20006;-80
2024/04/09 01:58:40;;;;;;;15.82;4.65;;;;;;;;;;5466960;27;20052;-80
2024/04/09 02:01:15;;;;;;;15.27;5.43;;;;;;;;;;5463928;27;20113;-81
2024/04/09 02:03:49;;;;;;;13.05;4.80;;;;;;;;;;5494785;26;20010;-80
2024/04/09 02:06:25;;;;;;;13.93;5.35;;;;;;;;;;5461506;27;20010;-80
2024/04/09 02:08:57;;;;;;;14.93;5.03;;;;;;;;;;5467453;26;20061;-80
2024/04/09 02:11:34;;;;;;;14.88;5.75;;;;;;;;;;5473811;27;20552;-80
2024/04/09 02:14:12;;;;;;;12.63;4.53;;;;;;;;;;5456489;27;20006;-80
2024/04/09 02:16:46;;;;;;;13.38;5.78;;;;;;;;;;5466786;27;20014;-80
2024/04/09 02:19:18;;;;;;;;;;;;;;;;;;5460245;27;20003;-80
2024/04/09 02:21:53;;;;;;;16.80;6.25;;;;;;;;;;5464085;27;19927;-82
2024/04/09 02:24:26;;;;;;;12.02;4.57;;;;;;;;;;5489755;26;20010;-83
2024/04/09 02:27:03;;;;;;;16.02;5.25;;;;;;;;;;5453987;27;20018;-82
2024/04/09 02:29:41;;;;;;;15.55;5.25;;;;;;;;;;5484833;26;20043;-82
2024/04/09 02:32:16;;;;;;;10.13;4.85;;;;;;;;;;5457097;27;20010;-82
2024/04/09 02:34:49;;;;;;;11.75;5.45;;;;;;;;;;5465025;27;20698;-80
2024/04/09 02:37:24;;;;;;;17.40;5.18;;;;;;;;;;5458030;27;20003;-80
2024/04/09 02:39:56;;;;;;;22.55;6.28;;;;;;;;;;5460699;27;20007;-81
2024/04/09 02:42:33;;;;;;;15.18;5.97;;;;;;;;;;5464777;27;20003;-80
2024/04/09 02:45:11;;;;;;;13.95;4.85;;;;;;;;;;5458982;27;20010;-80
2024/04/09 02:47:46;;;;;;;13.98;5.85;;;;;;;;;;5458022;26;20034;-80
2024/04/09 02:50:20;;;;;;;16.77;5.90;;;;;;;;;;5486130;26;20017;-80
2024/04/09 02:52:54;;;;;;;10.30;4.53;;;;;;;;;;5467666;27;20025;-80
2024/04/09 02:55:26;;;;;;;11.95;5.32;;;;;;;;;;5455107;27;20061;-81
2024/04/09 02:58:03;;;;;;;14.65;5.05;;;;;;;;;;5459232;27;20012;-80
2024/04/09 03:00:38;;;;;;;10.68;5.38;;;;;;;;;;5463509;27;20010;-81
2024/04/09 03:03:14;;;;;;;14.02;5.05;;;;;;;;;;5456767;27;20010;-80
2024/04/09 03:05:46;;;;;;;12.23;5.15;;;;;;;;;;5485075;26;20003;-81
2024/04/09 03:08:21;;;;;;;10.98;5.13;;;;;;;;;;5461680;27;20014;-81
2024/04/09 03:10:55;;;;;;;12.30;5.00;;;;;;;;;;5457217;27;20006;-80
2024/04/09 03:13:33;;;;;;;14.18;4.90;;;;;;;;;;5459654;27;20687;-81
2024/04/09 03:16:12;;;;;;;12.73;5.22;;;;;;;;;;5460321;27;20002;-80
2024/04/09 03:18:47;;;;;;;16.13;6.20;;;;;;;;;;5457793;27;20463;-80
2024/04/09 03:21:24;;;;;;;15.25;6.15;;;;;;;;;;5454463;27;20002;-80
2024/04/09 03:24:00;;;;;;;15.63;5.75;;;;;;;;;;5461094;27;20081;-80
2024/04/09 03:26:35;;;;;;;16.97;6.03;;;;;;;;;;5448595;26;20005;-81
2024/04/09 03:29:10;;;;;;;17.55;6.07;;;;;;;;;;5470579;26;20665;-81
2024/04/09 03:31:46;;;;;;;18.05;6.15;;;;;;;;;;5457201;27;20009;-81
2024/04/09 03:34:20;;;;;;;12.23;6.05;;;;;;;;;;5429924;27;20006;-81
2024/04/09 03:36:56;;;;;;;13.02;5.63;;;;;;;;;;5454873;27;20017;-80
2024/04/09 03:39:30;;;;;;;12.38;5.30;;;;;;;;;;5452440;27;20019;-81
2024/04/09 03:42:08;;;;;;;13.70;6.15;;;;;;;;;;5427469;27;20006;-81
2024/04/09 03:44:44;;;;;;;12.60;5.57;;;;;;;;;;5458920;27;20110;-81
2024/04/09 03:47:18;;;;;;;14.75;5.85;;;;;;;;;;5459689;27;20010;-81
2024/04/09 03:49:54;;;;;;;14.80;5.85;;;;;;;;;;5487065;26;20081;-81
2024/04/09 03:52:29;;;;;;;14.40;5.88;;;;;;;;;;5461739;27;20014;-81
2024/04/09 03:55:01;;;;;;;12.15;5.75;;;;;;;;;;5449988;27;20019;-81
2024/04/09 03:57:36;;;;;;;20.55;6.15;;;;;;;;;;5455594;27;20002;-81
2024/04/09 04:00:12;;;;;;;15.10;5.35;;;;;;;;;;5450188;27;20021;-80
2024/04/09 04:02:48;;;;;;;12.23;5.88;;;;;;;;;;5451126;27;20007;-80
2024/04/09 04:05:22;;;;;;;13.40;6.30;;;;;;;;;;5488551;26;20351;-81
2024/04/09 04:07:59;;;;;;;12.05;5.30;;;;;;;;;;5483299;26;20006;-80
2024/04/09 04:10:31;;;;;;;13.93;6.05;;;;;;;;;;5452695;27;20035;-81
2024/04/09 04:13:05;;;;;;;12.63;5.45;;;;;;;;;;5448244;27;20002;-81
2024/04/09 04:15:37;;;;;;;;;;;;;;;;;;5443042;27;20006;-81
2024/04/09 04:18:23;;;;;;;14.00;5.43;;;;;;;;;;5458373;27;19933;-81
2024/04/09 04:20:56;;;;;;;13.77;6.20;;;;;;;;;;5466268;27;20002;-81
2024/04/09 04:23:30;;;;;;;15.48;5.28;;;;;;;;;;5492027;26;20021;-81
2024/04/09 04:26:03;;;;;;;13.82;5.35;;;;;;;;;;5460108;27;20014;-81
2024/04/09 04:28:40;;;;;;;12.32;5.53;;;;;;;;;;5460576;27;20020;-81
2024/04/09 04:31:13;;;;;;;12.27;4.93;;;;;;;;;;5460503;27;20071;-81
2024/04/09 04:33:52;;;;;;;13.18;4.70;;;;;;;;;;5459963;27;20038;-82
2024/04/09 04:36:26;;;;;;;7.95;4.72;;;;;;;;;;5430123;27;20010;-81
2024/04/09 04:39:03;;;;;;;11.13;4.65;;;;;;;;;;5457117;27;20018;-82
2024/04/09 04:41:37;;;;;;;12.50;5.05;;;;;;;;;;5446469;27;20330;-81
2024/04/09 04:44:14;;;;;;;11.52;4.60;;;;;;;;;;5419465;27;20018;-82
2024/04/09 04:46:47;;;;;;;13.02;4.25;;;;;;;;;;5434850;27;20077;-82
2024/04/09 04:49:24;;;;;;;12.00;4.13;;;;;;;;;;5494314;26;20014;-83
2024/04/09 04:51:59;;;;;;;9.32;4.20;;;;;;;;;;5458522;27;20014;-82
2024/04/09 04:54:39;;;;;;;11.02;4.75;;;;;;;;;;5461449;27;19998;-83
2024/04/09 04:57:11;;;;;;;10.80;4.95;;;;;;;;;;5497755;26;20002;-83
2024/04/09 04:59:47;;;;;;;11.00;4.38;;;;;;;;;;5486874;26;20009;-82
2024/04/09 05:02:20;;;;;;;7.95;4.15;;;;;;;;;;5450025;27;20002;-81
2024/04/09 05:04:58;;;;;;;7.32;4.45;;;;;;;;;;5451166;27;19999;-81
2024/04/09 05:07:30;;;;;;;10.40;4.90;;;;;;;;;;5454201;27;20022;-82
2024/04/09 05:10:12;;;;;;;14.27;4.88;;;;;;;;;;5461350;27;20013;-82
2024/04/09 05:12:48;;;;;;;8.65;3.83;;;;;;;;;;5465776;27;20404;-83
2024/04/09 05:15:24;;;;;;;9.88;4.22;;;;;;;;;;5495003;26;20011;-82
2024/04/09 05:18:01;;;;;;;7.13;3.42;;;;;;;;;;5467849;27;20013;-82
2024/04/09 05:20:48;;;;;;;11.00;4.10;;;;;;;;;;5466811;27;20002;-82
2024/04/09 05:23:25;;;;;;;8.70;3.65;;;;;;;;;;5498669;26;20014;-83
2024/04/09 05:26:08;;;;;;;9.32;3.65;;;;;;;;;;5465883;26;20257;-83
2024/04/09 05:28:41;;;;;;;7.60;3.83;;;;;;;;;;5464975;27;19994;-84
2024/04/09 05:31:28;;;;;;;7.35;3.55;;;;;;;;;;5491924;26;20006;-83
2024/04/09 05:34:01;;;;;;;8.02;3.33;;;;;;;;;;5448717;26;20032;-83
2024/04/09 05:36:39;;;;;;;7.63;3.70;;;;;;;;;;5462142;27;20009;-84
2024/04/09 05:39:16;;;;;;;8.40;3.53;;;;;;;;;;5462689;27;20006;-83
2024/04/09 05:50:53;;;;;;;8.40;4.25;;;;;;;;;;5329535;22;20484;-86
2024/04/09 05:53:34;;;;;;;5.82;3.88;;;;;;;;;;5365848;27;20441;-87
2024/04/09 05:56:08;;;;;;;9.30;3.92;;;;;;;;;;5352963;27;20017;-89
2024/04/09 05:58:45;;;;;;;8.52;4.88;;;;;;;;;;5358773;27;20015;-89
2024/04/09 06:01:21;;;;;;;9.05;4.55;;;;;;;;;;5347706;27;20081;-84
2024/04/09 06:03:53;;;;;;;7.38;3.95;;;;;;;;;;5375474;27;20482;-82
2024/04/09 06:06:28;;;;;;;10.93;4.15;;;;;;;;;;5375542;27;20004;-81
2024/04/09 06:09:06;;;;;;;7.72;4.43;;;;;;;;;;5341252;27;21002;-86
2024/04/09 06:11:41;;;;;;;8.68;3.85;;;;;;;;;;5320992;27;20036;-83
2024/04/09 06:14:13;;;;;;;;;;;;;;;;;;5377083;27;20466;-81
2024/04/09 06:16:48;;;;;;;10.65;3.50;;;;;;;;;;5352260;27;19935;-82
2024/04/09 06:19:22;;;;;;;5.22;3.13;;;;;;;;;;5347004;27;20020;-82
2024/04/09 06:21:57;;;;;;;6.50;3.42;;;;;;;;;;5351651;27;20036;-82
2024/04/09 06:24:32;;;;;;;7.38;3.80;;;;;;;;;;5348939;27;20020;-84
2024/04/09 06:27:13;;;;;;;6.53;3.05;;;;;;;;;;5342321;27;20009;-83
2024/04/09 06:29:45;;;;;;;7.10;3.72;;;;;;;;;;5369464;27;20017;-84
2024/04/09 06:32:19;;;;;;;6.57;2.90;;;;;;;;;;5373735;27;20020;-84
2024/04/09 06:34:54;;;;;;;4.25;2.60;;;;;;;;;;5334558;27;20019;-84
2024/04/09 06:37:31;;;;;;;5.47;2.93;;;;;;;;;;5343107;27;20293;-84
2024/04/09 06:40:10;;;;;;;4.55;2.58;;;;;;;;;;5320168;27;20053;-85
2024/04/09 06:42:45;;;;;;;7.10;2.38;;;;;;;;;;5348866;27;20407;-85
2024/04/09 06:45:20;;;;;;;4.28;2.28;;;;;;;;;;5350709;27;20008;-83
2024/04/09 06:47:58;;;;;;;3.60;2.10;;;;;;;;;;5341580;27;20008;-79
2024/04/09 06:50:36;;;;;;;5.18;2.55;;;;;;;;;;5349925;27;20091;-80
2024/04/09 06:53:11;;;;;;;5.50;2.63;;;;;;;;;;5349930;27;20008;-81
2024/04/09 06:55:49;;;;;;;3.83;2.60;;;;;;;;;;5370736;27;20013;-81
2024/04/09 06:58:25;;;;;;;5.40;2.40;;;;;;;;;;5332466;27;20009;-84
2024/04/09 07:01:00;;;;;;;4.63;2.35;;;;;;;;;;5332814;27;20080;-82
2024/04/09 07:03:35;;;;;;;4.50;2.58;;;;;;;;;;5369030;27;20008;-84
2024/04/09 07:06:07;;;;;;;3.30;1.92;;;;;;;;;;5343502;27;20008;-84
2024/04/09 07:08:49;;;;;;;3.83;2.00;;;;;;;;;;5346811;27;20487;-84
2024/04/09 07:11:28;;;;;;;7.85;2.03;;;;;;;;;;5372261;27;20068;-83
2024/04/09 07:14:03;;;;;;;3.05;1.80;;;;;;;;;;5363862;27;20123;-83
2024/04/09 07:16:35;;;;;;;4.43;1.75;;;;;;;;;;5334736;27;20027;-84
2024/04/09 07:19:09;;;;;;;4.00;1.80;;;;;;;;;;5346542;27;20020;-84
2024/04/09 07:21:41;;;;;;;;;;;;;;;;;;5372260;27;20338;-83
2024/04/09 07:24:18;;;;;;;3.67;1.90;;;;;;;;;;5351039;27;19939;-83
2024/04/09 07:26:53;;;;;;;3.42;1.75;;;;;;;;;;5313272;27;20000;-83
2024/04/09 07:29:28;;;;;;;1.65;1.42;;;;;;;;;;5344328;27;20015;-83
2024/04/09 07:32:00;;;;;;;1.98;1.30;;;;;;;;;;5341960;27;20008;-82
2024/04/09 07:34:35;;;;;;;2.33;1.10;;;;;;;;;;5372445;27;20004;-84
2024/04/09 07:37:07;;;;;;;1.77;1.30;;;;;;;;;;5333272;27;20019;-83
2024/04/09 07:39:44;;;;;;;2.50;1.00;;;;;;;;;;5371139;27;20022;-84
2024/04/09 07:42:22;;;;;;;3.97;0.90;;;;;;;;;;5377408;27;20036;-82
2024/04/09 07:44:58;;;;;;;2.60;1.00;;;;;;;;;;5354583;27;21222;-81
2024/04/09 07:47:30;;;;;;;1.38;0.90;;;;;;;;;;5349942;27;20025;-81
2024/04/09 07:50:09;;;;;;;2.85;0.90;;;;;;;;;;5327983;27;20484;-81
2024/04/09 07:52:41;;;;;;;4.38;1.00;;;;;;;;;;5356121;27;20012;-81
2024/04/09 07:55:15;;;;;;;4.53;1.17;;;;;;;;;;5364376;27;20040;-81
2024/04/09 07:57:50;;;;;;;2.92;1.10;;;;;;;;;;5346044;27;20008;-81
2024/04/09 08:00:29;;;;;;;6.75;1.48;;;;;;;;;;5350021;27;20008;-81
2024/04/09 08:03:02;;;;;;;2.72;0.90;;;;;;;;;;5375040;27;20000;-82
2024/04/09 08:05:37;;;;;;;6.15;1.25;;;;;;;;;;5345027;27;20031;-82
2024/04/09 08:08:11;;;;;;;3.17;1.75;;;;;;;;;;5348625;27;20020;-82
2024/04/09 08:10:50;;;;;;;10.05;1.50;;;;;;;;;;5368682;27;20019;-81
2024/04/09 08:13:26;;;;;;;4.57;0.95;;;;;;;;;;5340281;27;20008;-83
2024/04/09 08:16:02;;;;;;;8.73;2.00;;;;;;;;;;5375049;27;20020;-83
2024/04/09 08:18:34;;;;;;;2.92;1.33;;;;;;;;;;5351822;27;20498;-82
2024/04/09 08:21:09;;;;;;;6.57;1.63;;;;;;;;;;5349890;27;20023;-82
2024/04/09 08:23:45;;;;;;;138.00;20.02;;;;;;;;;;5369196;27;20036;-80
2024/04/09 08:26:23;;;;;;;3.55;1.80;;;;;;;;;;5341940;27;20020;-80
2024/04/09 08:29:04;;;;;;;4.95;2.00;;;;;;;;;;5363025;27;20008;-81
2024/04/09 08:31:39;;;;;;;3.80;1.80;;;;;;;;;;5357251;27;21126;-79
2024/04/09 08:34:17;;;;;;;4.78;1.90;;;;;;;;;;5299966;27;20020;-79
2024/04/09 08:36:52;;;;;;;;;;;;;;;;;;5364221;27;23314;-80
2024/04/09 08:39:55;;;;;;;3.60;1.83;;;;;;;;;;5327961;27;19995;-78
2024/04/09 08:42:37;;;;;;;6.00;2.33;;;;;;;;;;5339409;27;20707;-79
2024/04/09 08:45:14;;;;;;;4.47;1.98;;;;;;;;;;5336979;27;20517;-81
2024/04/09 08:47:53;;;;;;;5.10;2.00;;;;;;;;;;5314774;27;20013;-80
2024/04/09 08:50:25;;;;;;;5.15;2.17;;;;;;;;;;5359642;27;20008;-81
2024/04/09 08:53:00;;;;;;;6.63;3.20;;;;;;;;;;5363360;27;20014;-81
2024/04/09 08:55:39;;;;;;;4.40;2.50;;;;;;;;;;5333531;27;20013;-79
2024/04/09 08:58:17;;;;;;;4.55;2.67;;;;;;;;;;5343194;27;20000;-81
2024/04/09 09:00:52;;;;;;;4.82;3.00;;;;;;;;;;5347144;27;20004;-81
2024/04/09 09:03:31;;;;;;;4.65;2.92;;;;;;;;;;5342888;27;20019;-81
2024/04/09 09:06:12;;;;;;;43.40;8.95;;;;;;;;;;5342542;27;20012;-80
2024/04/09 09:08:51;;;;;;;4.22;3.40;;;;;;;;;;5369462;27;20040;-81
2024/04/09 09:11:23;;;;;;;3.58;3.22;;;;;;;;;;5345907;27;20017;-81
2024/04/09 09:14:06;;;;;;;5.75;4.00;;;;;;;;;;5340202;27;20012;-81
2024/04/09 09:16:41;;;;;;;6.88;3.70;;;;;;;;;;5344845;27;20026;-82
2024/04/09 09:19:20;;;;;;;5.35;3.33;;;;;;;;;;5352326;27;20011;-81
2024/04/09 09:21:52;;;;;;;4.90;3.00;;;;;;;;;;5362306;27;20376;-81
2024/04/09 09:24:30;;;;;;;7.43;3.60;;;;;;;;;;5374724;27;20019;-80
2024/04/09 09:27:03;;;;;;;5.43;2.97;;;;;;;;;;5353381;27;20020;-82
2024/04/09 09:29:41;;;;;;;4.03;2.50;;;;;;;;;;5342212;27;20419;-81
2024/04/09 09:32:18;;;;;;;6.15;2.80;;;;;;;;;;5367751;27;20711;-81
2024/04/09 09:34:53;;;;;;;4.20;2.63;;;;;;;;;;5343001;27;20023;-81
2024/04/09 09:37:27;;;;;;;3.65;2.13;;;;;;;;;;5338872;27;20024;-81
2024/04/09 09:40:09;;;;;;;4.05;1.80;;;;;;;;;;5346041;27;20008;-81
2024/04/09 09:42:42;;;;;;;4.28;2.00;;;;;;;;;;5347172;27;20008;-81
2024/04/09 09:45:18;;;;;;;;;;;;;;;;;;5344414;27;20019;-82
2024/04/09 09:47:56;;;;;;;5.00;2.38;;;;;;;;;;5352843;27;19935;-81
2024/04/09 09:50:37;;;;;;;6.03;2.40;;;;;;;;;;5356414;27;20016;-82
2024/04/09 09:53:11;;;;;;;6.03;1.90;;;;;;;;;;5338092;27;20020;-81
2024/04/09 09:55:46;;;;;;;;;;;;;;;;;;5345252;27;20012;-81
2024/04/09 09:58:22;;;;;;;4.07;1.60;;;;;;;;;;5344753;27;20000;-81
2024/04/09 10:01:04;;;;;;;4.25;1.60;;;;;;;;;;5342779;27;22999;-81
2024/04/09 10:03:42;;;;;;;3.90;2.08;;;;;;;;;;5354705;27;20016;-82
2024/04/09 10:06:17;;;;;;;3.20;1.67;;;;;;;;;;5368760;27;20016;-83
2024/04/09 10:08:50;;;;;;;;;;;;;;;;;;5369875;27;20021;-83
2024/04/09 10:11:25;;;;;;;4.65;2.20;;;;;;;;;;5342796;27;19962;-82
2024/04/09 10:14:01;;;;;;;2.63;1.63;;;;;;;;;;5346292;27;20044;-82
2024/04/09 10:16:35;;;;;;;4.70;2.10;;;;;;;;;;5333709;27;20442;-81
2024/04/09 10:19:18;;;;;;;5.68;2.28;;;;;;;;;;5345105;27;20441;-81
2024/04/09 10:21:51;;;;;;;4.13;1.98;;;;;;;;;;5365555;27;20008;-81
2024/04/09 10:24:28;;;;;;;4.47;1.75;;;;;;;;;;5369922;27;20020;-81
2024/04/09 10:27:06;;;;;;;3.53;1.50;;;;;;;;;;5323891;27;20013;-81
2024/04/09 10:29:51;;;;;;;2.97;1.20;;;;;;;;;;5350625;27;20356;-81
2024/04/09 10:32:24;;;;;;;3.00;1.05;;;;;;;;;;5337851;27;20008;-82
2024/04/09 10:35:11;;;;;;;5.13;1.48;;;;;;;;;;5340528;27;20028;-81
2024/04/09 10:37:43;;;;;;;4.80;1.65;;;;;;;;;;5367143;27;20087;-81
2024/04/09 10:40:21;;;;;;;3.75;1.35;;;;;;;;;;5373305;27;20013;-81
2024/04/09 10:42:58;;;;;;;3.75;1.58;;;;;;;;;;5314256;27;20166;-81
2024/04/09 10:45:31;;;;;;;3.80;1.10;;;;;;;;;;5340909;27;20027;-82
2024/04/09 10:48:07;;;;;;;5.55;1.67;;;;;;;;;;5373745;27;20004;-82
2024/04/09 10:50:49;;;;;;;5.07;1.33;;;;;;;;;;5367336;27;20028;-81
2024/04/09 10:53:21;;;;;;;3.47;1.30;;;;;;;;;;5370491;27;20051;-81
2024/04/09 10:56:03;;;;;;;2.80;1.10;;;;;;;;;;5345489;27;20009;-81
2024/04/09 10:58:37;;;;;;;3.83;1.15;;;;;;;;;;5345599;27;20045;-81
2024/04/09 11:01:14;;;;;;;4.43;1.20;;;;;;;;;;5370026;27;20004;-81
2024/04/09 11:03:48;;;;;;;4.07;1.20;;;;;;;;;;5346732;27;20510;-81
2024/04/09 11:06:31;;;;;;;4.78;1.60;;;;;;;;;;5336004;27;20009;-82
2024/04/09 11:09:06;;;;;;;4.53;1.30;;;;;;;;;;5347024;27;20012;-81
2024/04/09 11:11:44;;;;;;;3.10;1.20;;;;;;;;;;5345527;27;20004;-81
2024/04/09 11:14:16;;;;;;;3.55;1.23;;;;;;;;;;5353520;27;20083;-83
2024/04/09 11:16:51;;;;;;;4.93;1.40;;;;;;;;;;5348909;27;20020;-84
2024/04/09 11:19:29;;;;;;;3.03;1.23;;;;;;;;;;5346834;27;20343;-83
2024/04/09 11:22:08;;;;;;;4.07;1.25;;;;;;;;;;5348982;27;20024;-82
2024/04/09 11:24:40;;;;;;;3.38;1.30;;;;;;;;;;5347760;27;20020;-83
2024/04/09 11:27:15;;;;;;;4.05;1.25;;;;;;;;;;5347108;27;20023;-83
2024/04/09 11:29:50;;;;;;;4.93;1.60;;;;;;;;;;5356182;27;20024;-83
2024/04/09 11:32:25;;;;;;;4.90;1.42;;;;;;;;;;5353755;27;20108;-82
2024/04/09 11:34:57;;;;;;;5.57;2.03;;;;;;;;;;5344446;27;20031;-82
2024/04/09 11:37:35;;;;;;;5.55;1.60;;;;;;;;;;5373233;27;20008;-83
2024/04/09 11:40:09;;;;;;;3.75;1.27;;;;;;;;;;5342418;27;20005;-82
2024/04/09 11:42:45;;;;;;;3.88;1.00;;;;;;;;;;5316753;27;20618;-82
2024/04/09 11:45:22;;;;;;;2.95;1.00;;;;;;;;;;5345880;27;20024;-83
2024/04/09 11:48:02;;;;;;;5.38;1.40;;;;;;;;;;5356225;27;20012;-81
2024/04/09 11:50:39;;;;;;;3.80;1.60;;;;;;;;;;5333731;27;20512;-83
2024/04/09 11:53:17;;;;;;;2.17;1.20;;;;;;;;;;5346635;27;20021;-82
2024/04/09 11:55:56;;;;;;;4.40;1.60;;;;;;;;;;5368508;27;20087;-82
2024/04/09 11:58:31;;;;;;;5.85;1.48;;;;;;;;;;5368175;27;20106;-81
2024/04/09 12:01:03;;;;;;;5.13;1.60;;;;;;;;;;5372102;27;20008;-81
2024/04/09 12:03:39;;;;;;;4.85;1.67;;;;;;;;;;5342542;27;20020;-79
2024/04/09 12:06:12;;;;;;;4.32;1.50;;;;;;;;;;5372267;27;20459;-79
2024/04/09 12:08:52;;;;;;;4.18;1.20;;;;;;;;;;5339584;27;20017;-80
2024/04/09 12:11:25;;;;;;;6.93;1.40;;;;;;;;;;5370207;27;20487;-80
2024/04/09 12:14:00;;;;;;;3.17;1.00;;;;;;;;;;5343188;27;20008;-80
2024/04/09 12:16:42;;;;;;;3.92;1.70;;;;;;;;;;5343731;27;20092;-80
2024/04/09 12:19:17;;;;;;;3.63;1.20;;;;;;;;;;5336950;27;20012;-81
2024/04/09 12:21:51;;;;;;;2.67;1.35;;;;;;;;;;5344773;27;20640;-80
2024/04/09 12:24:31;;;;;;;5.72;2.28;;;;;;;;;;5343447;27;20024;-80
2024/04/09 12:27:07;;;;;;;5.38;1.50;;;;;;;;;;5370144;27;20009;-81
2024/04/09 12:29:44;;;;;;;3.90;1.38;;;;;;;;;;5349648;27;20009;-81
2024/04/09 12:32:16;;;;;;;5.95;1.30;;;;;;;;;;5349425;27;20421;-80
2024/04/09 12:34:51;;;;;;;2.78;1.30;;;;;;;;;;5349160;27;20012;-80
2024/04/09 12:37:24;;;;;;;3.15;1.48;;;;;;;;;;5341871;27;20043;-82
2024/04/09 12:40:01;;;;;;;5.03;1.65;;;;;;;;;;5344537;27;20100;-82
2024/04/09 12:42:38;;;;;;;4.07;1.25;;;;;;;;;;5343182;27;20008;-83
2024/04/09 12:45:14;;;;;;;3.65;1.33;;;;;;;;;;5344928;27;20052;-82
2024/04/09 12:47:46;;;;;;;3.75;1.52;;;;;;;;;;5340604;27;20475;-83
2024/04/09 12:50:20;;;;;;;4.25;1.40;;;;;;;;;;5344573;27;20471;-83
2024/04/09 12:52:56;;;;;;;4.22;1.50;;;;;;;;;;5342900;27;20005;-82
2024/04/09 12:55:37;;;;;;;4.40;1.52;;;;;;;;;;5343558;27;20004;-82
2024/04/09 12:58:11;;;;;;;3.45;1.00;;;;;;;;;;5335579;27;20016;-81
2024/04/09 13:00:46;;;;;;;6.90;1.20;;;;;;;;;;5340794;27;20585;-82
2024/04/09 13:03:39;;;;;;;4.57;1.33;;;;;;;;;;5368961;27;20252;-81
2024/04/09 13:06:15;;;;;;;4.05;1.08;;;;;;;;;;5341945;27;20087;-82
2024/04/09 13:08:47;;;;;;;2.30;0.90;;;;;;;;;;5351051;27;20478;-81
2024/04/09 13:11:28;;;;;;;2.38;1.20;;;;;;;;;;5342324;27;20083;-81
2024/04/09 13:14:01;;;;;;;1.98;0.93;;;;;;;;;;5341417;27;20013;-82
2024/04/09 13:16:39;;;;;;;5.75;1.20;;;;;;;;;;5354206;27;20020;-82
2024/04/09 13:19:23;;;;;;;6.93;1.20;;;;;;;;;;5371367;27;20647;-82
2024/04/09 13:21:58;;;;;;;3.17;1.10;;;;;;;;;;5343801;27;20000;-82
2024/04/09 13:24:36;;;;;;;3.75;1.15;;;;;;;;;;5337691;27;20710;-82
2024/04/09 13:27:15;;;;;;;5.78;1.40;;;;;;;;;;5344697;27;20366;-82
2024/04/09 13:29:47;;;;;;;3.58;1.30;;;;;;;;;;5368446;27;20008;-80
2024/04/09 13:32:27;;;;;;;4.05;1.23;;;;;;;;;;5341424;27;20008;-82
2024/04/09 13:35:03;;;;;;;3.55;1.20;;;;;;;;;;5340069;27;20024;-83
2024/04/09 13:37:43;;;;;;;3.20;0.88;;;;;;;;;;5366934;27;20624;-82
2024/04/09 13:40:20;;;;;;;4.63;1.00;;;;;;;;;;5341715;27;20465;-82
2024/04/09 13:42:59;;;;;;;2.58;1.13;;;;;;;;;;5315580;27;20024;-82
2024/04/09 13:45:31;;;;;;;3.92;1.20;;;;;;;;;;5359475;27;20005;-83
2024/04/09 13:48:06;;;;;;;1.73;0.85;;;;;;;;;;5371738;27;20023;-82
2024/04/09 13:50:43;;;;;;;2.10;0.90;;;;;;;;;;5375317;27;20027;-82
2024/04/09 13:53:18;;;;;;;2.83;1.10;;;;;;;;;;5346276;27;20015;-82
2024/04/09 13:55:52;;;;;;;;;;;;;;;;;;5347687;27;20727;-81
2024/04/09 13:58:30;;;;;;;3.58;0.85;;;;;;;;;;5350300;27;20298;-81
2024/04/09 14:01:02;;;;;;;4.22;1.30;;;;;;;;;;5343504;27;20606;-82
2024/04/09 14:03:37;;;;;;;3.72;1.23;;;;;;;;;;5345170;27;20008;-81
2024/04/09 14:06:10;;;;;;;4.38;1.08;;;;;;;;;;5316328;27;20004;-82
2024/04/09 14:08:44;;;;;;;3.13;0.98;;;;;;;;;;5347279;27;20019;-83
2024/04/09 14:11:19;;;;;;;3.13;0.95;;;;;;;;;;5349091;27;20020;-85
2024/04/09 14:13:59;;;;;;;5.35;1.13;;;;;;;;;;5375940;27;20054;-84
2024/04/09 14:16:37;;;;;;;2.70;1.10;;;;;;;;;;5344176;27;20020;-83
2024/04/09 14:19:13;;;;;;;4.75;1.40;;;;;;;;;;5351761;27;20029;-84
2024/04/09 14:21:46;;;;;;;2.78;1.23;;;;;;;;;;5341245;27;20040;-82
2024/04/09 14:24:21;;;;;;;3.78;1.25;;;;;;;;;;5347095;27;20030;-82
2024/04/09 14:26:59;;;;;;;3.33;1.10;;;;;;;;;;5360698;27;20376;-82
2024/04/09 14:29:37;;;;;;;3.07;0.93;;;;;;;;;;5348203;27;20759;-83
2024/04/09 14:32:09;;;;;;;4.72;1.50;;;;;;;;;;5351627;27;20040;-85
2024/04/09 14:34:43;;;;;;;4.13;1.00;;;;;;;;;;5352239;27;20026;-81
2024/04/09 14:37:19;;;;;;;4.47;0.98;;;;;;;;;;5346685;27;20485;-82
2024/04/09 14:39:57;;;;;;;3.75;0.80;;;;;;;;;;5333650;27;20001;-81
2024/04/09 14:42:29;;;;;;;4.90;1.13;;;;;;;;;;5367181;27;20387;-81
2024/04/09 14:45:08;;;;;;;3.50;1.10;;;;;;;;;;5348937;27;20015;-81
2024/04/09 14:47:40;;;;;;;3.28;1.20;;;;;;;;;;5345636;27;20016;-81
2024/04/09 14:50:15;;;;;;;3.97;1.10;;;;;;;;;;5346689;27;20009;-81
2024/04/09 14:52:51;;;;;;;4.05;1.05;;;;;;;;;;5348127;27;20447;-80
2024/04/09 14:55:27;;;;;;;5.18;1.33;;;;;;;;;;5342809;27;20031;-80
2024/04/09 14:58:01;;;;;;;2.47;0.75;;;;;;;;;;5342241;27;20008;-80
2024/04/09 15:00:43;;;;;;;2.97;0.80;;;;;;;;;;5344869;27;20087;-80
2024/04/09 15:03:18;;;;;;;4.18;1.10;;;;;;;;;;5332744;27;20012;-80
2024/04/09 15:05:57;;;;;;;1.50;0.70;;;;;;;;;;5318240;27;20008;-80
2024/04/09 15:08:30;;;;;;;2.50;0.80;;;;;;;;;;5341028;27;20015;-81
2024/04/09 15:11:06;;;;;;;3.85;1.10;;;;;;;;;;5368202;27;20812;-80
2024/04/09 15:13:40;;;;;;;4.95;1.33;;;;;;;;;;5344492;27;20090;-80
2024/04/09 15:16:17;;;;;;;4.55;0.80;;;;;;;;;;5339433;27;20088;-80
2024/04/09 15:18:53;;;;;;;3.53;1.10;;;;;;;;;;5315514;27;20015;-81
2024/04/09 15:21:28;;;;;;;3.33;0.90;;;;;;;;;;5369744;27;20324;-81
2024/04/09 15:24:01;;;;;;;2.80;1.20;;;;;;;;;;5364179;27;20016;-81
2024/04/09 15:26:38;;;;;;;3.17;1.13;;;;;;;;;;5345385;27;20012;-80
2024/04/09 15:29:12;;;;;;;4.20;1.02;;;;;;;;;;5342218;27;20008;-81
2024/04/09 15:31:50;;;;;;;3.63;1.23;;;;;;;;;;5344658;27;20446;-80
2024/04/09 15:34:27;;;;;;;3.20;0.95;;;;;;;;;;5364590;27;20016;-80
2024/04/09 15:37:04;;;;;;;5.47;1.00;;;;;;;;;;5343036;27;20035;-80
2024/04/09 15:39:36;;;;;;;5.18;1.27;;;;;;;;;;5341685;27;20027;-80
2024/04/09 15:42:11;;;;;;;4.18;1.02;;;;;;;;;;5368616;27;20303;-80
2024/04/09 15:44:43;;;;;;;;;;;;;;;;;;5350257;27;20020;-79